Time;durP1;ratioP1;P1;durP2;ratioP2;P2;SDS_P1;SDS_P2;PMS_P1;PMS_P2;Temp;Humidity;BMP_temperature;BMP_pressure;BME280_temperature;BME280_humidity;BME280_pressure;Samples;Min_cycle;Max_cycle;Signal;HPM_P1;HPM_P2
2022/08/04 00:00:06;;;;;;;9.02;2.13;;;26.90;84.80;;;;;;4987033;28;20026;-87
2022/08/04 00:02:40;;;;;;;8.50;2.30;;;27.00;84.90;;;;;;4995513;28;20033;-89
2022/08/04 00:05:09;;;;;;;9.10;2.53;;;27.00;84.40;;;;;;4995505;28;20050;-89
2022/08/04 00:07:41;;;;;;;6.05;2.20;;;27.00;84.30;;;;;;4993973;28;20105;-91
2022/08/04 00:10:08;;;;;;;6.45;2.47;;;26.90;84.60;;;;;;4995272;28;20023;-92
2022/08/04 00:12:41;;;;;;;9.52;2.72;;;26.90;84.60;;;;;;4977765;28;20030;-92
2022/08/04 00:15:10;;;;;;;8.32;2.83;;;26.90;84.70;;;;;;4995276;28;20034;-89
2022/08/04 00:18:03;;;;;;;5.78;2.20;;;26.80;84.80;;;;;;4995172;28;20054;-90
2022/08/04 00:20:32;;;;;;;7.40;2.40;;;26.80;84.90;;;;;;4991747;28;20049;-90
2022/08/04 00:22:59;;;;;;;7.30;2.50;;;26.80;84.50;;;;;;4995287;28;20479;-89
2022/08/04 00:25:25;;;;;;;8.85;2.40;;;26.80;84.30;;;;;;4996308;28;20390;-91
2022/08/04 00:27:52;;;;;;;6.00;2.10;;;26.80;84.60;;;;;;4978181;28;20031;-90
2022/08/04 00:30:19;;;;;;;6.57;2.47;;;26.80;84.60;;;;;;4995242;28;20053;-87
2022/08/04 00:32:48;;;;;;;9.32;2.47;;;26.80;85.00;;;;;;4995494;28;20026;-86
2022/08/04 00:35:14;;;;;;;9.13;2.30;;;26.70;85.10;;;;;;4995381;28;20567;-88
2022/08/04 00:37:43;;;;;;;8.13;2.75;;;26.60;85.40;;;;;;4994764;28;20026;-90
2022/08/04 00:40:29;;;;;;;6.05;2.40;;;26.60;85.90;;;;;;4995288;28;20104;-91
2022/08/04 00:43:27;;;;;;;6.72;2.25;;;26.50;86.30;;;;;;4955960;28;20118;-87
2022/08/04 00:46:42;;;;;;;4.07;2.40;;;26.50;86.40;;;;;;4988632;28;20133;-90
2022/08/04 00:49:31;;;;;;;6.43;3.22;;;26.50;86.30;;;;;;4900673;28;20049;-89
2022/08/04 00:52:24;;;;;;;8.95;3.38;;;26.50;86.10;;;;;;4978225;28;20066;-88
2022/08/04 00:54:53;;;;;;;9.65;3.88;;;26.50;85.90;;;;;;4963468;28;20396;-90
2022/08/04 00:57:49;;;;;;;7.43;3.38;;;26.40;85.70;;;;;;4990311;28;20116;-87
2022/08/04 01:00:16;;;;;;;8.18;3.55;;;26.30;85.70;;;;;;4998233;28;20046;-78
2022/08/04 01:02:53;;;;;;;8.60;3.55;;;26.30;86.40;;;;;;4981522;28;20508;-90
2022/08/04 01:05:56;;;;;;;8.15;3.70;;;26.20;86.00;;;;;;4997766;28;20106;-84
2022/08/04 01:08:44;;;;;;;6.25;3.10;;;26.20;86.10;;;;;;4999361;28;20030;-90
2022/08/04 01:11:18;;;;;;;6.35;2.88;;;26.20;86.20;;;;;;4998745;28;20014;-89
2022/08/04 01:14:09;;;;;;;7.50;3.22;;;26.20;86.50;;;;;;4996829;28;20499;-89
2022/08/04 01:16:48;;;;;;;7.30;2.60;;;26.20;86.50;;;;;;4995389;28;20074;-91
2022/08/04 01:19:45;;;;;;;6.70;3.17;;;26.10;86.30;;;;;;4998338;28;20027;-87
2022/08/04 01:22:28;;;;;;;8.63;2.90;;;26.10;86.40;;;;;;4992967;28;20030;-90
2022/08/04 01:25:28;;;;;;;7.32;2.92;;;26.10;86.30;;;;;;4999208;28;20030;-87
2022/08/04 01:28:25;;;;;;;6.95;2.85;;;26.00;86.50;;;;;;4997901;28;20023;-89
2022/08/04 01:30:56;;;;;;;9.80;2.47;;;26.00;86.40;;;;;;4998484;28;20409;-90
2022/08/04 01:33:27;;;;;;;6.28;2.70;;;26.00;86.40;;;;;;4998223;28;20014;-89
2022/08/04 01:36:01;;;;;;;9.18;2.70;;;26.00;86.40;;;;;;4998718;28;20038;-90
2022/08/04 01:38:37;;;;;;;8.55;2.72;;;26.00;86.10;;;;;;5000191;28;20022;-91
2022/08/04 01:41:06;;;;;;;8.85;2.60;;;26.00;86.20;;;;;;5001328;28;20046;-91
2022/08/04 01:43:40;;;;;;;7.65;2.30;;;25.90;86.10;;;;;;5001387;28;20031;-89
2022/08/04 01:46:10;;;;;;;9.63;3.00;;;25.90;86.30;;;;;;5000140;28;20109;-87
2022/08/04 01:48:38;;;;;;;8.73;2.88;;;25.90;86.10;;;;;;4999557;28;20110;-90
2022/08/04 01:51:07;;;;;;;5.18;2.40;;;25.90;86.10;;;;;;5000919;28;20026;-89
2022/08/04 01:53:36;;;;;;;4.32;2.30;;;25.90;86.70;;;;;;4999472;28;20030;-89
2022/08/04 01:56:05;;;;;;;7.18;2.80;;;25.80;86.10;;;;;;5001466;28;20042;-89
2022/08/04 01:58:32;;;;;;;6.97;2.60;;;25.80;86.00;;;;;;5000434;28;20027;-84
2022/08/04 02:01:04;;;;;;;8.52;2.55;;;25.80;85.90;;;;;;5000461;28;20034;-91
2022/08/04 02:03:31;;;;;;;7.20;3.20;;;25.80;86.00;;;;;;4999724;28;20496;-66
2022/08/04 02:06:30;;;;;;;6.07;3.00;;;25.80;86.10;;;;;;4999337;28;20035;-90
2022/08/04 02:09:25;;;;;;;6.65;2.72;;;25.70;86.20;;;;;;5001094;28;20029;-90
2022/08/04 02:11:56;;;;;;;9.80;2.70;;;25.70;86.40;;;;;;5000721;28;20037;-91
2022/08/04 02:14:44;;;;;;;10.02;3.20;;;25.70;86.20;;;;;;4998237;28;20034;-81
2022/08/04 02:17:15;;;;;;;5.15;2.75;;;25.70;86.20;;;;;;4999927;28;20030;-87
2022/08/04 02:19:59;;;;;;;12.50;3.25;;;25.60;86.50;;;;;;4998479;28;20018;-90
2022/08/04 02:22:27;;;;;;;9.38;3.03;;;25.60;86.60;;;;;;4997783;28;20030;-86
2022/08/04 02:25:02;;;;;;;7.28;3.20;;;25.60;86.30;;;;;;4980049;28;20418;-91
2022/08/04 02:27:45;;;;;;;7.20;3.53;;;25.50;86.50;;;;;;4997182;28;20105;-91
2022/08/04 02:30:11;;;;;;;7.05;3.17;;;25.50;86.50;;;;;;4996681;28;20022;-91
2022/08/04 02:32:40;;;;;;;6.80;3.00;;;25.50;86.70;;;;;;4996177;28;20491;-90
2022/08/04 02:35:14;;;;;;;7.40;3.45;;;25.50;86.70;;;;;;4992716;28;20039;-90
2022/08/04 02:37:46;;;;;;;6.93;3.38;;;25.50;86.50;;;;;;4986954;28;20074;-89
2022/08/04 02:40:14;;;;;;;7.13;3.10;;;25.50;86.70;;;;;;4976478;28;20022;-91
2022/08/04 02:42:40;;;;;;;8.57;3.50;;;25.50;86.60;;;;;;4975218;28;20043;-82
2022/08/04 02:45:06;;;;;;;5.75;2.95;;;25.50;86.60;;;;;;4976716;28;20030;-83
2022/08/04 02:47:33;;;;;;;10.15;3.47;;;25.40;86.60;;;;;;4992897;28;20022;-92
2022/08/04 02:50:01;;;;;;;8.60;3.40;;;25.40;86.70;;;;;;4997984;28;20026;-84
2022/08/04 02:52:28;;;;;;;10.73;3.22;;;25.40;86.70;;;;;;4997859;28;20020;-90
2022/08/04 02:54:56;;;;;;;9.60;3.30;;;25.40;86.90;;;;;;4996302;28;20030;-87
2022/08/04 02:57:29;;;;;;;7.65;3.15;;;25.30;86.80;;;;;;4995900;28;20509;-88
2022/08/04 03:00:13;;;;;;;7.13;2.92;;;25.30;86.80;;;;;;4995201;28;20049;-65
2022/08/04 03:03:01;;;;;;;5.60;3.20;;;25.30;87.10;;;;;;4995236;28;20105;-76
2022/08/04 03:05:35;;;;;;;6.18;2.78;;;25.30;87.20;;;;;;4994988;28;20029;-66
2022/08/04 03:08:20;;;;;;;10.35;3.08;;;25.30;87.30;;;;;;4994941;28;20037;-66
2022/08/04 03:10:48;;;;;;;8.35;3.58;;;25.20;87.30;;;;;;4995208;28;20488;-69
2022/08/04 03:13:41;;;;;;;9.25;3.63;;;25.20;87.40;;;;;;4995048;28;20034;-74
2022/08/04 03:16:12;;;;;;;7.30;4.30;;;25.20;87.50;;;;;;4994235;28;20050;-73
2022/08/04 03:19:02;;;;;;;7.63;3.47;;;25.20;87.30;;;;;;4994587;28;20033;-82
2022/08/04 03:21:45;;;;;;;8.77;3.28;;;25.20;87.30;;;;;;4994968;28;20046;-71
2022/08/04 03:24:38;;;;;;;7.20;3.75;;;25.10;87.30;;;;;;4995282;28;20027;-88
2022/08/04 03:27:19;;;;;;;6.60;2.92;;;25.10;87.10;;;;;;4994211;28;20101;-66
2022/08/04 03:29:47;;;;;;;11.05;3.10;;;25.10;86.90;;;;;;4994249;28;20023;-68
2022/08/04 03:32:57;;;;;;;5.38;2.88;;;25.00;87.10;;;;;;4994095;28;20431;-65
2022/08/04 03:35:34;;;;;;;6.75;2.80;;;25.00;87.20;;;;;;4993999;28;20542;-65
2022/08/04 03:38:24;;;;;;;8.82;3.65;;;25.00;87.00;;;;;;4994028;28;20031;-66
2022/08/04 03:41:09;;;;;;;5.70;3.17;;;24.90;87.30;;;;;;4994029;28;20026;-67
2022/08/04 03:43:49;;;;;;;6.35;3.17;;;25.00;87.20;;;;;;4994881;28;20030;-90
2022/08/04 03:46:33;;;;;;;5.60;2.90;;;24.90;87.30;;;;;;4994632;28;20022;-88
2022/08/04 03:49:35;;;;;;;8.15;3.33;;;24.90;87.40;;;;;;4995326;28;20503;-89
2022/08/04 03:55:37;;;;;;;8.57;3.03;;;24.80;88.30;;;;;;4994895;28;20057;-89
2022/08/04 03:58:15;;;;;;;7.75;3.08;;;24.80;87.60;;;;;;4994032;28;20046;-66
2022/08/04 04:00:59;;;;;;;8.63;2.67;;;24.80;87.40;;;;;;4993539;28;20432;-65
2022/08/04 04:04:01;;;;;;;5.63;2.65;;;24.80;87.50;;;;;;4994210;28;20022;-66
2022/08/04 04:06:43;;;;;;;7.20;3.00;;;24.80;87.70;;;;;;4993999;28;20029;-65
2022/08/04 04:09:15;;;;;;;3.72;2.80;;;24.80;87.40;;;;;;4993909;28;20034;-77
2022/08/04 04:11:57;;;;;;;5.60;2.50;;;24.80;87.30;;;;;;4993877;28;20029;-67
2022/08/04 04:14:23;;;;;;;;;;;24.70;87.40;;;;;;4993960;28;20530;-69
2022/08/04 04:17:12;;;;;;;4.68;2.13;;;24.70;87.40;;;;;;4993687;28;19945;-66
2022/08/04 04:20:12;;;;;;;5.20;2.42;;;24.70;87.60;;;;;;4974577;28;20031;-66
2022/08/04 04:23:08;;;;;;;8.90;2.63;;;24.60;87.80;;;;;;4974312;28;20027;-66
2022/08/04 04:25:59;;;;;;;8.70;2.40;;;24.60;87.80;;;;;;4974435;28;20023;-68
2022/08/04 04:29:06;;;;;;;8.68;2.63;;;24.60;87.80;;;;;;4982696;28;20030;-66
2022/08/04 04:31:34;;;;;;;5.00;2.15;;;24.60;88.30;;;;;;4955070;28;20068;-67
2022/08/04 04:34:19;;;;;;;8.80;2.75;;;24.60;88.30;;;;;;4976152;28;20033;-66
2022/08/04 04:37:02;;;;;;;7.10;2.30;;;24.60;88.50;;;;;;4975998;28;20037;-67
2022/08/04 04:39:32;;;;;;;5.32;2.08;;;24.50;88.60;;;;;;4993261;28;20114;-74
2022/08/04 04:42:14;;;;;;;6.70;2.50;;;24.60;89.20;;;;;;4993645;28;20033;-66
2022/08/04 04:45:01;;;;;;;5.85;2.10;;;24.50;88.80;;;;;;4993266;28;20031;-65
2022/08/04 04:47:55;;;;;;;5.97;2.63;;;24.40;89.30;;;;;;4993584;28;20050;-65
2022/08/04 04:50:31;;;;;;;;;;;24.40;89.30;;;;;;4974655;28;20062;-65
2022/08/04 04:53:26;;;;;;;7.72;2.83;;;24.60;89.60;;;;;;4974060;28;19960;-66
2022/08/04 04:56:15;;;;;;;7.43;2.60;;;24.50;89.60;;;;;;4977674;28;20043;-65
2022/08/04 04:58:42;;;;;;;3.78;2.05;;;24.50;89.70;;;;;;4985115;28;20053;-69
2022/08/04 05:01:41;;;;;;;6.40;2.50;;;24.40;89.90;;;;;;4990055;28;20457;-69
2022/08/04 05:04:14;;;;;;;9.57;2.83;;;24.40;89.90;;;;;;4980134;28;20019;-80
2022/08/04 05:06:52;;;;;;;5.35;2.70;;;24.50;89.00;;;;;;4958290;28;20432;-69
2022/08/04 05:09:53;;;;;;;8.90;2.85;;;24.60;88.60;;;;;;4988983;28;20113;-69
2022/08/04 05:12:22;;;;;;;9.50;3.63;;;24.60;88.40;;;;;;4996493;28;20034;-80
2022/08/04 05:14:50;;;;;;;7.78;3.05;;;24.70;88.30;;;;;;4996411;28;20034;-71
2022/08/04 05:17:42;;;;;;;7.20;2.95;;;24.70;88.10;;;;;;4998527;28;20026;-69
2022/08/04 05:20:18;;;;;;;8.00;3.40;;;24.70;88.10;;;;;;4999509;28;20109;-69
2022/08/04 05:22:50;;;;;;;9.50;3.70;;;24.70;87.80;;;;;;4997579;28;20159;-75
2022/08/04 05:25:38;;;;;;;8.07;3.85;;;24.70;88.00;;;;;;4997141;28;20081;-84
2022/08/04 05:28:18;;;;;;;8.68;3.58;;;24.70;87.90;;;;;;4995962;28;20022;-83
2022/08/04 05:30:53;;;;;;;8.55;3.55;;;24.60;87.90;;;;;;4996124;28;20031;-79
2022/08/04 05:33:52;;;;;;;8.77;3.97;;;24.70;88.20;;;;;;4996250;28;20026;-69
2022/08/04 05:36:20;;;;;;;8.88;3.90;;;24.70;88.30;;;;;;4996398;28;20041;-73
2022/08/04 05:38:51;;;;;;;9.75;3.88;;;24.70;88.50;;;;;;4991939;28;20077;-75
2022/08/04 05:41:17;;;;;;;8.55;3.58;;;24.60;88.70;;;;;;4991578;28;20081;-83
2022/08/04 05:43:44;;;;;;;6.78;3.55;;;24.70;89.00;;;;;;4999001;28;20391;-78
2022/08/04 05:46:12;;;;;;;11.82;3.97;;;24.70;89.00;;;;;;4980001;28;20057;-73
2022/08/04 05:48:39;;;;;;;9.02;3.50;;;24.70;89.20;;;;;;4993858;28;20038;-81
2022/08/04 05:51:09;;;;;;;9.60;3.40;;;24.70;89.10;;;;;;4994478;28;20030;-82
2022/08/04 05:53:35;;;;;;;9.77;3.78;;;24.70;89.30;;;;;;4996341;28;20081;-81
2022/08/04 05:56:02;;;;;;;7.72;3.50;;;24.70;89.60;;;;;;4994428;28;20046;-80
2022/08/04 05:58:29;;;;;;;8.88;4.18;;;24.80;89.50;;;;;;4994458;28;20037;-82
2022/08/04 06:00:58;;;;;;;8.35;4.18;;;24.70;89.60;;;;;;4996207;28;20129;-79
2022/08/04 06:03:26;;;;;;;8.63;4.35;;;24.80;89.80;;;;;;4995292;28;20033;-69
2022/08/04 06:05:52;;;;;;;5.93;2.55;;;24.80;89.60;;;;;;4985105;28;20472;-77
2022/08/04 06:08:18;;;;;;;5.60;2.78;;;24.80;89.70;;;;;;4990902;28;20018;-79
2022/08/04 06:10:45;;;;;;;12.43;4.20;;;24.80;89.90;;;;;;4995285;28;20511;-73
2022/08/04 06:13:15;;;;;;;10.70;3.28;;;24.90;90.10;;;;;;4994563;28;20034;-73
2022/08/04 06:15:47;;;;;;;14.80;6.20;;;25.00;89.90;;;;;;4995752;28;20049;-66
2022/08/04 06:18:13;;;;;;;19.63;9.82;;;25.10;89.90;;;;;;4994935;28;20112;-67
2022/08/04 06:20:42;;;;;;;15.10;8.30;;;25.10;90.00;;;;;;4991092;28;20038;-76
2022/08/04 06:23:14;;;;;;;18.58;10.25;;;25.10;90.20;;;;;;4976920;28;20034;-69
2022/08/04 06:25:47;;;;;;;20.23;11.57;;;25.10;90.60;;;;;;4986550;28;20431;-73
2022/08/04 06:28:14;;;;;;;19.63;10.68;;;25.10;90.60;;;;;;4994052;28;20863;-68
2022/08/04 06:30:41;;;;;;;15.00;10.52;;;25.20;90.70;;;;;;4995192;28;20125;-70
2022/08/04 06:33:32;;;;;;;18.35;10.95;;;25.20;90.60;;;;;;4993419;28;20212;-72
2022/08/04 06:35:59;;;;;;;23.08;14.13;;;25.20;90.80;;;;;;4995458;28;20035;-75
2022/08/04 06:38:27;;;;;;;22.48;14.60;;;25.20;91.00;;;;;;4995380;28;20054;-73
2022/08/04 06:40:56;;;;;;;22.45;13.55;;;25.20;91.10;;;;;;4992883;28;20499;-66
2022/08/04 06:43:23;;;;;;;17.77;11.05;;;25.20;91.10;;;;;;4980143;28;20536;-68
2022/08/04 06:45:50;;;;;;;14.48;9.50;;;25.20;90.90;;;;;;4984478;28;20161;-69
2022/08/04 06:48:17;;;;;;;24.73;15.73;;;25.30;91.00;;;;;;4984316;28;20014;-65
2022/08/04 06:50:46;;;;;;;18.05;12.02;;;25.30;91.50;;;;;;4975325;28;20464;-72
2022/08/04 06:53:13;;;;;;;19.98;11.68;;;25.30;91.30;;;;;;4986269;28;20471;-70
2022/08/04 06:55:41;;;;;;;27.70;16.13;;;25.30;91.20;;;;;;4994413;28;20113;-67
2022/08/04 06:58:08;;;;;;;21.80;13.77;;;25.30;91.50;;;;;;4992764;28;20073;-79
2022/08/04 07:00:35;;;;;;;20.52;13.85;;;25.30;91.40;;;;;;4975128;28;20019;-79
2022/08/04 07:03:02;;;;;;;20.40;12.90;;;25.30;91.50;;;;;;4991331;28;20426;-72
2022/08/04 07:05:28;;;;;;;17.27;12.13;;;25.40;91.20;;;;;;4992004;28;20026;-76
2022/08/04 07:07:55;;;;;;;18.13;13.27;;;25.40;91.20;;;;;;4992615;28;20026;-78
2022/08/04 07:10:22;;;;;;;18.27;12.98;;;25.40;91.20;;;;;;4993607;28;20480;-78
2022/08/04 07:12:48;;;;;;;18.42;12.40;;;25.50;91.20;;;;;;4992762;28;20543;-71
2022/08/04 07:15:17;;;;;;;16.60;13.32;;;25.40;91.10;;;;;;4990612;28;20049;-75
2022/08/04 07:17:45;;;;;;;16.00;12.20;;;25.50;91.20;;;;;;5003536;28;20038;-77
2022/08/04 07:20:11;;;;;;;19.38;13.18;;;25.50;91.30;;;;;;4989661;28;20030;-77
2022/08/04 07:22:37;;;;;;;17.55;11.50;;;25.50;91.20;;;;;;4981207;28;20080;-74
2022/08/04 07:25:08;;;;;;;16.80;11.60;;;25.50;91.10;;;;;;4983166;28;20026;-78
2022/08/04 07:27:34;;;;;;;18.40;12.30;;;25.50;91.20;;;;;;4987582;28;20578;-79
2022/08/04 07:30:00;;;;;;;19.10;12.60;;;25.50;91.30;;;;;;4974109;28;20294;-77
2022/08/04 07:32:26;;;;;;;16.30;13.73;;;25.60;91.40;;;;;;4991630;28;20495;-74
2022/08/04 07:34:53;;;;;;;15.75;13.15;;;25.60;92.00;;;;;;4988186;28;20577;-78
2022/08/04 07:37:19;;;;;;;15.73;11.98;;;25.60;92.00;;;;;;4990638;28;20031;-72
2022/08/04 07:39:45;;;;;;;16.55;11.55;;;25.60;91.80;;;;;;4991250;28;20025;-73
2022/08/04 07:42:11;;;;;;;17.33;12.18;;;25.60;91.70;;;;;;4984873;28;20495;-70
2022/08/04 07:44:37;;;;;;;12.50;11.02;;;25.70;91.80;;;;;;4986177;28;20049;-67
2022/08/04 07:47:06;;;;;;;16.27;11.02;;;25.70;91.90;;;;;;4992410;28;20022;-76
2022/08/04 07:49:32;;;;;;;11.40;9.85;;;25.70;91.80;;;;;;4987023;28;20080;-75
2022/08/04 07:51:58;;;;;;;12.30;9.40;;;25.70;91.80;;;;;;4992495;28;20416;-70
2022/08/04 07:54:24;;;;;;;11.90;8.75;;;25.70;91.70;;;;;;4990620;28;20067;-66
2022/08/04 07:56:51;;;;;;;12.18;8.77;;;25.70;91.70;;;;;;4992089;28;20041;-72
2022/08/04 07:59:18;;;;;;;11.80;7.53;;;25.70;91.70;;;;;;4994587;28;20090;-74
2022/08/04 08:01:45;;;;;;;8.10;6.97;;;25.70;91.70;;;;;;4989685;28;20022;-70
2022/08/04 08:04:12;;;;;;;9.90;7.30;;;25.70;91.60;;;;;;4990859;28;20462;-78
2022/08/04 08:06:41;;;;;;;9.70;6.95;;;25.70;91.60;;;;;;4990879;28;20015;-77
2022/08/04 08:09:21;;;;;;;9.40;5.78;;;25.80;91.60;;;;;;4982510;28;20054;-82
2022/08/04 08:11:50;;;;;;;10.80;5.13;;;25.80;91.60;;;;;;4988589;28;20018;-76
2022/08/04 08:14:17;;;;;;;8.88;6.28;;;25.80;91.60;;;;;;4987411;28;20038;-72
2022/08/04 08:16:43;;;;;;;8.00;5.40;;;25.80;91.50;;;;;;5000148;28;20034;-77
2022/08/04 08:19:09;;;;;;;7.03;4.55;;;25.80;91.50;;;;;;4993950;28;20022;-70
2022/08/04 08:21:35;;;;;;;7.03;4.05;;;25.80;91.60;;;;;;4988923;28;20435;-68
2022/08/04 08:24:00;;;;;;;7.65;4.65;;;25.80;91.60;;;;;;4989675;28;20483;-76
2022/08/04 08:26:26;;;;;;;8.43;4.05;;;25.80;91.50;;;;;;4983839;28;20500;-70
2022/08/04 08:28:52;;;;;;;9.75;4.60;;;25.80;91.50;;;;;;4988643;28;20049;-73
2022/08/04 08:31:18;;;;;;;8.02;4.53;;;25.80;91.50;;;;;;4992697;28;20034;-67
2022/08/04 08:33:46;;;;;;;10.02;4.90;;;25.80;91.70;;;;;;5001122;28;20475;-69
2022/08/04 08:36:21;;;;;;;6.85;4.68;;;25.90;92.10;;;;;;4995353;28;20027;-66
2022/08/04 08:39:11;;;;;;;7.30;5.13;;;25.90;92.10;;;;;;5000810;28;20036;-76
2022/08/04 08:42:01;;;;;;;7.50;4.70;;;25.90;92.40;;;;;;4997975;28;20029;-66
2022/08/04 08:45:03;;;;;;;7.10;5.03;;;25.80;92.00;;;;;;5000642;28;20038;-74
2022/08/04 08:47:50;;;;;;;6.32;4.80;;;25.80;92.20;;;;;;4997325;28;20414;-66
2022/08/04 08:50:30;;;;;;;8.90;5.05;;;25.80;92.40;;;;;;4987579;28;20038;-81
2022/08/04 08:53:05;;;;;;;5.45;4.95;;;25.80;92.40;;;;;;5003052;28;20150;-66
2022/08/04 08:55:58;;;;;;;8.00;4.20;;;25.80;92.40;;;;;;4992696;28;20043;-75
2022/08/04 08:58:42;;;;;;;7.25;5.00;;;25.70;92.50;;;;;;4996720;28;20038;-74
2022/08/04 09:01:33;;;;;;;10.25;4.40;;;25.70;92.50;;;;;;4990342;28;20169;-74
2022/08/04 09:04:07;;;;;;;7.88;4.50;;;25.70;92.50;;;;;;4982597;28;20037;-74
2022/08/04 09:06:51;;;;;;;8.65;4.65;;;25.70;92.70;;;;;;4994350;28;20018;-75
2022/08/04 09:09:24;;;;;;;6.18;4.05;;;25.70;92.30;;;;;;4992274;28;20022;-71
2022/08/04 09:11:57;;;;;;;6.93;4.85;;;25.70;92.20;;;;;;5000203;28;20098;-72
2022/08/04 09:14:35;;;;;;;7.30;4.88;;;25.70;92.40;;;;;;4990158;28;20126;-77
2022/08/04 09:17:05;;;;;;;8.40;5.05;;;25.70;92.70;;;;;;4991267;28;20421;-74
2022/08/04 09:19:41;;;;;;;9.40;5.00;;;25.70;92.90;;;;;;4991988;28;20061;-74
2022/08/04 09:22:27;;;;;;;7.22;5.47;;;25.70;93.10;;;;;;4994882;28;20057;-74
2022/08/04 09:25:33;;;;;;;6.85;5.25;;;25.70;93.70;;;;;;5000437;28;20521;-69
2022/08/04 09:28:05;;;;;;;6.80;5.03;;;25.70;93.90;;;;;;4885769;29;20029;-66
2022/08/04 09:30:46;;;;;;;6.20;3.92;;;25.60;94.70;;;;;;4981657;28;20121;-65
2022/08/04 09:33:30;;;;;;;8.45;5.20;;;25.70;94.00;;;;;;4997663;28;20057;-73
2022/08/04 09:36:33;;;;;;;5.75;4.20;;;25.70;93.80;;;;;;4995497;28;20049;-68
2022/08/04 09:39:02;;;;;;;6.32;4.22;;;25.70;93.60;;;;;;4974448;28;20136;-66
2022/08/04 09:41:47;;;;;;;11.95;5.47;;;25.70;93.60;;;;;;4992545;28;20368;-70
2022/08/04 09:44:51;;;;;;;7.18;4.30;;;25.60;93.90;;;;;;4991097;28;20586;-68
2022/08/04 09:47:57;;;;;;;6.82;4.03;;;25.60;93.50;;;;;;4985523;28;20030;-77
2022/08/04 09:50:39;;;;;;;7.53;3.83;;;25.60;93.60;;;;;;4997650;28;20025;-70
2022/08/04 09:53:56;;;;;;;8.40;4.30;;;25.70;93.40;;;;;;4994360;28;20437;-79
2022/08/04 09:56:47;;;;;;;6.15;4.13;;;25.60;93.50;;;;;;4987556;28;20051;-67
2022/08/04 09:59:41;;;;;;;7.47;4.20;;;25.60;93.20;;;;;;4992589;28;20595;-78
2022/08/04 10:02:12;;;;;;;5.45;3.40;;;25.70;93.50;;;;;;4991465;28;20122;-76
2022/08/04 10:04:41;;;;;;;7.15;3.47;;;25.70;93.30;;;;;;4972188;28;20065;-77
2022/08/04 10:07:23;;;;;;;9.88;3.60;;;25.70;93.50;;;;;;4989596;28;20022;-70
2022/08/04 10:10:31;;;;;;;6.03;3.45;;;25.70;93.70;;;;;;4987795;28;20435;-66
2022/08/04 10:13:00;;;;;;;7.95;3.15;;;25.60;93.30;;;;;;4976579;28;20045;-78
2022/08/04 10:15:44;;;;;;;7.88;3.15;;;25.70;93.30;;;;;;4988166;28;20149;-67
2022/08/04 10:18:30;;;;;;;3.97;2.22;;;25.70;93.10;;;;;;4978330;28;20038;-78
2022/08/04 10:21:18;;;;;;;3.92;2.22;;;25.70;92.90;;;;;;4984274;28;20027;-78
2022/08/04 10:24:09;;;;;;;5.90;3.05;;;25.70;92.50;;;;;;4992876;28;20150;-68
2022/08/04 10:26:47;;;;;;;7.07;2.30;;;25.80;92.50;;;;;;4992633;28;20030;-73
2022/08/04 10:29:29;;;;;;;7.15;2.60;;;25.80;92.50;;;;;;4993969;28;20042;-65
2022/08/04 10:32:13;;;;;;;4.97;2.13;;;25.80;91.00;;;;;;4984897;28;20018;-76
2022/08/04 10:34:56;;;;;;;4.20;2.60;;;25.90;90.10;;;;;;4990390;28;20503;-78
2022/08/04 10:37:50;;;;;;;4.95;2.30;;;25.90;90.10;;;;;;4989884;28;20080;-65
2022/08/04 10:40:45;;;;;;;5.53;2.05;;;25.90;90.20;;;;;;4947610;28;20062;-67
2022/08/04 10:43:27;;;;;;;2.78;1.98;;;26.00;90.00;;;;;;4984609;28;20487;-77
2022/08/04 10:46:09;;;;;;;4.40;1.73;;;26.30;87.30;;;;;;4988872;28;20050;-78
2022/08/04 10:48:50;;;;;;;3.03;1.55;;;26.30;87.50;;;;;;4990668;28;20019;-66
2022/08/04 10:51:39;;;;;;;2.50;1.42;;;26.40;87.80;;;;;;4989579;28;20033;-64
2022/08/04 10:54:12;;;;;;;5.25;1.83;;;26.40;87.40;;;;;;4992122;28;20022;-64
2022/08/04 10:56:40;;;;;;;;;;;26.50;86.00;;;;;;4990468;28;20034;-65
2022/08/04 10:59:20;;;;;;;5.63;1.80;;;26.50;85.10;;;;;;4986082;28;20406;-78
2022/08/04 11:01:49;;;;;;;5.85;2.22;;;26.50;84.80;;;;;;4997108;28;20123;-64
2022/08/04 11:04:35;;;;;;;5.85;1.67;;;26.50;84.90;;;;;;4992798;28;20026;-83
2022/08/04 11:07:01;;;;;;;3.75;1.35;;;26.50;86.70;;;;;;4994089;28;20060;-82
2022/08/04 11:09:28;;;;;;;3.33;1.52;;;26.50;86.80;;;;;;4991518;28;20046;-67
2022/08/04 11:12:18;;;;;;;2.30;1.10;;;26.50;87.90;;;;;;4989981;28;20113;-75
2022/08/04 11:15:19;;;;;;;4.45;1.80;;;26.50;85.90;;;;;;4985023;28;20030;-84
2022/08/04 11:18:08;;;;;;;4.32;1.92;;;26.50;85.70;;;;;;4976502;28;20117;-78
2022/08/04 11:20:49;;;;;;;5.65;1.65;;;26.50;86.60;;;;;;4989235;28;20019;-74
2022/08/04 11:23:17;;;;;;;4.97;1.35;;;26.30;86.50;;;;;;4987679;28;20132;-71
2022/08/04 11:25:45;;;;;;;7.45;1.50;;;26.30;86.40;;;;;;4993198;28;20026;-78
2022/08/04 11:28:23;;;;;;;3.42;1.35;;;26.20;87.50;;;;;;4976975;28;20468;-74
2022/08/04 11:31:04;;;;;;;8.02;1.80;;;26.30;88.90;;;;;;4976028;28;20457;-79
2022/08/04 11:34:06;;;;;;;4.30;1.40;;;26.20;88.20;;;;;;4988292;28;20031;-78
2022/08/04 11:37:02;;;;;;;6.15;1.35;;;26.20;88.60;;;;;;4996974;28;20509;-79
2022/08/04 11:39:47;;;;;;;7.82;1.92;;;26.20;89.00;;;;;;4995624;28;20029;-68
2022/08/04 11:42:25;;;;;;;4.72;1.17;;;26.20;89.20;;;;;;4978261;28;20472;-78
2022/08/04 11:44:54;;;;;;;3.80;1.55;;;26.20;88.50;;;;;;4993078;28;20491;-78
2022/08/04 11:47:53;;;;;;;4.78;1.63;;;26.30;87.30;;;;;;4994134;28;20514;-78
2022/08/04 11:50:31;;;;;;;4.20;1.27;;;26.30;86.90;;;;;;4993692;28;20039;-79
2022/08/04 11:52:58;;;;;;;4.15;1.30;;;26.30;86.80;;;;;;4976611;28;20483;-78
2022/08/04 11:55:27;;;;;;;4.88;1.38;;;26.30;87.40;;;;;;4992753;28;20384;-79
2022/08/04 11:57:53;;;;;;;5.70;1.60;;;26.30;86.30;;;;;;4993886;28;20054;-79
2022/08/04 12:00:19;;;;;;;2.95;1.02;;;26.40;85.20;;;;;;4993601;28;20019;-79
2022/08/04 12:03:19;;;;;;;2.47;1.10;;;26.30;85.40;;;;;;4976143;28;20493;-68
2022/08/04 12:06:18;;;;;;;3.53;1.30;;;26.30;86.10;;;;;;4993804;28;20446;-78
2022/08/04 12:08:53;;;;;;;5.82;1.23;;;26.40;85.70;;;;;;4945178;28;20379;-79
2022/08/04 12:11:28;;;;;;;2.97;1.35;;;26.40;86.70;;;;;;4990561;28;20550;-66
2022/08/04 12:14:03;;;;;;;3.85;1.40;;;26.40;87.60;;;;;;4986932;28;20073;-75
2022/08/04 12:16:51;;;;;;;3.90;1.20;;;26.40;87.30;;;;;;4989790;28;20034;-67
2022/08/04 12:19:31;;;;;;;2.40;1.15;;;26.50;87.40;;;;;;4991998;28;20029;-75
2022/08/04 12:22:02;;;;;;;6.32;1.40;;;26.40;87.30;;;;;;4989942;28;20109;-67
2022/08/04 12:24:41;;;;;;;3.00;1.20;;;26.50;86.90;;;;;;4987963;28;20041;-67
2022/08/04 12:27:17;;;;;;;3.22;1.42;;;26.50;87.30;;;;;;4982212;28;20034;-75
2022/08/04 12:29:44;;;;;;;3.45;1.58;;;26.50;85.40;;;;;;4973153;28;20026;-67
2022/08/04 12:32:45;;;;;;;3.78;1.45;;;26.50;85.60;;;;;;4991019;28;20029;-74
2022/08/04 12:35:54;;;;;;;3.72;1.33;;;26.50;85.70;;;;;;4966902;28;20046;-77
2022/08/04 12:38:25;;;;;;;8.38;1.60;;;26.60;86.80;;;;;;4943612;28;20062;-67
2022/08/04 12:40:54;;;;;;;4.43;1.58;;;26.60;86.60;;;;;;4987595;28;20092;-68
2022/08/04 12:43:22;;;;;;;4.65;1.50;;;26.60;86.50;;;;;;4991679;28;20026;-76
2022/08/04 12:45:50;;;;;;;5.18;1.40;;;26.60;86.50;;;;;;4988458;28;20038;-68
2022/08/04 12:48:17;;;;;;;6.22;1.25;;;26.60;86.40;;;;;;4980968;28;20031;-74
2022/08/04 12:50:51;;;;;;;3.22;1.80;;;26.60;86.30;;;;;;4989659;28;20040;-71
2022/08/04 12:53:18;;;;;;;2.47;1.23;;;26.70;84.20;;;;;;4999132;28;20026;-67
2022/08/04 12:55:47;;;;;;;3.97;1.60;;;26.70;83.70;;;;;;4988582;28;20023;-76
2022/08/04 12:58:17;;;;;;;5.38;1.50;;;26.70;84.00;;;;;;4987290;28;20027;-67
2022/08/04 13:00:46;;;;;;;4.35;1.50;;;26.70;84.30;;;;;;4982647;28;20019;-76
2022/08/04 13:03:15;;;;;;;2.60;1.27;;;26.70;84.90;;;;;;4983778;28;20026;-74
2022/08/04 13:05:41;;;;;;;5.28;1.30;;;26.80;85.30;;;;;;4979493;28;20034;-77
2022/08/04 13:08:09;;;;;;;6.15;1.88;;;26.70;85.90;;;;;;4979197;28;20023;-76
2022/08/04 13:10:40;;;;;;;5.43;1.00;;;26.70;85.90;;;;;;4987469;28;20137;-70
2022/08/04 13:13:15;;;;;;;2.83;1.30;;;26.80;86.10;;;;;;4997614;28;20088;-68
2022/08/04 13:15:41;;;;;;;4.30;1.35;;;26.80;84.80;;;;;;4989124;28;20305;-68
2022/08/04 13:18:09;;;;;;;4.18;1.35;;;26.80;84.10;;;;;;4990699;28;20038;-75
2022/08/04 13:20:37;;;;;;;4.80;2.10;;;26.80;85.50;;;;;;4990105;28;20105;-73
2022/08/04 13:23:09;;;;;;;3.28;1.50;;;26.90;82.40;;;;;;4986584;28;20126;-72
2022/08/04 13:25:40;;;;;;;7.10;1.98;;;26.90;82.40;;;;;;4987778;28;20058;-66
2022/08/04 13:28:15;;;;;;;4.78;1.70;;;27.00;81.20;;;;;;4989514;28;20026;-68
2022/08/04 13:30:47;;;;;;;5.65;1.70;;;27.00;82.90;;;;;;4988858;28;20206;-71
2022/08/04 13:33:15;;;;;;;3.88;1.75;;;27.00;81.70;;;;;;4988648;28;20037;-67
2022/08/04 13:35:45;;;;;;;4.40;1.35;;;27.00;80.60;;;;;;4990797;28;20182;-67
2022/08/04 13:38:13;;;;;;;6.80;1.95;;;27.00;81.80;;;;;;4990217;28;20116;-67